createdAt,value
2022-09-22T00:02:05.032Z,101479.00
2022-09-22T00:04:37.994Z,101480.00
2022-09-22T00:07:10.984Z,101487.00
2022-09-22T00:09:43.951Z,101482.00
2022-09-22T00:12:28.032Z,101481.00
2022-09-22T00:15:00.805Z,101478.00
2022-09-22T00:17:34.020Z,101484.00
2022-09-22T00:20:07.409Z,101494.00
2022-09-22T00:22:40.682Z,101490.00
2022-09-22T00:25:14.700Z,101485.00
2022-09-22T00:27:47.872Z,101481.00
2022-09-22T00:30:20.668Z,101483.00
2022-09-22T00:32:53.665Z,101489.00
2022-09-22T00:35:26.658Z,101484.00
2022-09-22T00:37:59.646Z,101478.00
2022-09-22T00:40:32.669Z,101482.00
2022-09-22T00:43:22.996Z,101488.00
2022-09-22T00:45:57.899Z,101485.00
2022-09-22T00:48:32.951Z,101490.00
2022-09-22T00:51:07.591Z,101477.00
2022-09-22T00:53:44.539Z,101487.00
2022-09-22T00:56:27.985Z,101492.00
2022-09-22T00:59:02.730Z,101489.00
2022-09-22T01:01:36.915Z,101488.00
2022-09-22T01:04:12.747Z,101486.00
2022-09-22T01:06:45.091Z,101482.00
2022-09-22T01:09:19.280Z,101486.00
2022-09-22T01:11:52.247Z,101491.00
2022-09-22T01:14:43.789Z,101476.00
2022-09-22T01:17:28.622Z,101489.00
2022-09-22T01:20:25.816Z,101479.00
2022-09-22T01:23:17.727Z,101479.00
2022-09-22T01:26:18.650Z,101490.00
2022-09-22T01:29:26.589Z,101479.00
2022-09-22T01:32:04.779Z,101487.00
2022-09-22T01:35:03.539Z,101484.00
2022-09-22T01:37:53.080Z,101487.00
2022-09-22T01:40:39.184Z,101483.00
2022-09-22T01:43:14.160Z,101474.00
2022-09-22T01:45:49.151Z,101476.00
2022-09-22T01:48:30.033Z,101470.00
2022-09-22T01:51:13.795Z,101473.00
2022-09-22T01:53:49.154Z,101479.00
2022-09-22T01:56:24.758Z,101480.00
2022-09-22T01:58:59.958Z,101472.00
2022-09-22T02:01:47.669Z,101468.00
2022-09-22T02:04:25.074Z,101465.00
2022-09-22T02:07:00.225Z,101466.00
2022-09-22T02:09:35.623Z,101466.00
2022-09-22T02:12:09.626Z,101460.00
2022-09-22T02:14:42.823Z,101461.00
2022-09-22T02:17:16.135Z,101469.00
2022-09-22T02:19:49.442Z,101462.00
2022-09-22T02:22:22.603Z,101458.00
2022-09-22T02:24:56.185Z,101455.00
2022-09-22T02:27:32.134Z,101456.00
2022-09-22T02:30:12.926Z,101442.00
2022-09-22T02:32:48.074Z,101430.00
2022-09-22T02:35:21.538Z,101423.00
2022-09-22T02:38:01.984Z,101420.00
2022-09-22T02:40:53.240Z,101423.00
2022-09-22T02:43:42.683Z,101429.00
2022-09-22T02:46:26.349Z,101443.00
2022-09-22T02:48:59.200Z,101438.00
2022-09-22T02:51:38.389Z,101445.00
2022-09-22T02:54:11.270Z,101447.00
2022-09-22T02:56:45.839Z,101439.00
2022-09-22T02:59:18.900Z,101443.00
2022-09-22T03:01:51.922Z,101443.00
2022-09-22T03:04:25.380Z,101433.00
2022-09-22T03:06:58.403Z,101436.00
2022-09-22T03:09:31.405Z,101446.00
2022-09-22T03:12:04.589Z,101445.00
2022-09-22T03:14:37.593Z,101438.00
2022-09-22T03:17:10.649Z,101435.00
2022-09-22T03:19:48.433Z,101432.00
2022-09-22T03:22:25.889Z,101436.00
2022-09-22T03:24:59.313Z,101444.00
2022-09-22T03:27:32.234Z,101440.00
2022-09-22T03:30:06.474Z,101436.00
2022-09-22T03:32:39.661Z,101436.00
2022-09-22T03:35:13.263Z,101444.00
2022-09-22T03:37:46.179Z,101439.00
2022-09-22T03:40:19.317Z,101435.00
2022-09-22T03:42:52.396Z,101430.00
2022-09-22T03:45:25.271Z,101436.00
2022-09-22T03:47:58.120Z,101436.00
2022-09-22T03:50:31.183Z,101433.00
2022-09-22T03:53:03.996Z,101433.00
2022-09-22T03:55:36.990Z,101440.00
2022-09-22T03:58:10.033Z,101437.00
2022-09-22T04:00:43.085Z,101440.00
2022-09-22T04:03:16.100Z,101442.00
2022-09-22T04:05:53.538Z,101436.00
2022-09-22T04:08:26.663Z,101437.00
2022-09-22T04:11:00.927Z,101433.00
2022-09-22T04:13:33.760Z,101441.00
2022-09-22T04:16:07.894Z,101435.00
2022-09-22T04:18:45.022Z,101428.00
2022-09-22T04:21:18.449Z,101434.00
2022-09-22T04:23:51.320Z,101430.00
2022-09-22T04:26:25.100Z,101423.00
2022-09-22T04:28:57.928Z,101435.00
2022-09-22T04:31:30.851Z,101435.00
2022-09-22T04:34:07.480Z,101439.00
2022-09-22T04:36:37.860Z,101429.00
2022-09-22T04:39:10.787Z,101434.00
2022-09-22T04:41:43.863Z,101441.00
2022-09-22T04:44:16.764Z,101433.00
2022-09-22T04:46:49.788Z,101434.00
2022-09-22T04:49:22.801Z,101448.00
2022-09-22T04:51:55.753Z,101439.00
2022-09-22T04:54:28.756Z,101439.00
2022-09-22T04:57:01.703Z,101430.00
2022-09-22T04:59:34.703Z,101429.00
2022-09-22T05:02:11.958Z,101425.00
2022-09-22T05:04:44.831Z,101429.00
2022-09-22T05:07:17.906Z,101426.00
2022-09-22T05:09:51.052Z,101435.00
2022-09-22T05:12:23.941Z,101421.00
2022-09-22T05:14:57.087Z,101418.00
2022-09-22T05:17:32.300Z,101417.00
2022-09-22T05:20:06.028Z,101420.00
2022-09-22T05:22:40.431Z,101407.00
2022-09-22T05:25:15.822Z,101411.00
2022-09-22T05:27:53.562Z,101420.00
2022-09-22T05:30:28.345Z,101410.00
2022-09-22T05:33:01.162Z,101411.00
2022-09-22T05:35:36.861Z,101415.00
2022-09-22T05:38:08.401Z,101412.00
2022-09-22T05:40:41.484Z,101410.00
2022-09-22T05:43:17.409Z,101407.00
2022-09-22T05:45:50.383Z,101410.00
2022-09-22T05:48:31.000Z,101413.00
2022-09-22T05:51:01.050Z,101417.00
2022-09-22T05:53:34.116Z,101415.00
2022-09-22T05:56:07.512Z,101420.00
2022-09-22T05:58:40.902Z,101413.00
2022-09-22T06:01:13.846Z,101415.00
2022-09-22T06:03:46.824Z,101399.00
2022-09-22T06:06:19.964Z,101399.00
2022-09-22T06:08:53.249Z,101404.00
2022-09-22T06:11:26.277Z,101403.00
2022-09-22T06:13:59.176Z,101404.00
2022-09-22T06:16:33.672Z,101412.00
2022-09-22T06:19:07.102Z,101402.00
2022-09-22T06:21:40.006Z,101410.00
2022-09-22T06:24:13.146Z,101408.00
2022-09-22T06:26:46.880Z,101404.00
2022-09-22T06:29:24.094Z,101407.00
2022-09-22T06:31:56.892Z,101414.00
2022-09-22T06:34:29.827Z,101416.00
2022-09-22T06:37:03.060Z,101416.00
2022-09-22T06:39:37.052Z,101411.00
2022-09-22T06:42:10.121Z,101408.00
2022-09-22T06:44:43.873Z,101406.00
2022-09-22T06:47:16.910Z,101406.00
2022-09-22T06:49:49.832Z,101414.00
2022-09-22T06:52:22.943Z,101410.00
2022-09-22T06:54:56.927Z,101409.00
2022-09-22T06:57:31.032Z,101411.00
2022-09-22T07:00:08.913Z,101417.00
2022-09-22T07:02:41.915Z,101415.00
2022-09-22T07:05:16.068Z,101416.00
2022-09-22T07:07:49.135Z,101411.00
2022-09-22T07:10:22.429Z,101410.00
2022-09-22T07:12:55.806Z,101421.00
2022-09-22T07:15:28.655Z,101412.00
2022-09-22T07:18:01.645Z,101416.00
2022-09-22T07:20:35.773Z,101416.00
2022-09-22T07:23:09.927Z,101406.00
2022-09-22T07:25:42.704Z,101415.00
2022-09-22T07:28:15.678Z,101411.00
2022-09-22T07:30:49.675Z,101405.00
2022-09-22T07:33:23.094Z,101419.00
2022-09-22T07:36:06.870Z,101413.00
2022-09-22T07:38:41.386Z,101424.00
2022-09-22T07:41:20.786Z,101412.00
2022-09-22T07:43:59.204Z,101425.00
2022-09-22T07:46:32.548Z,101425.00
2022-09-22T07:49:05.651Z,101413.00
2022-09-22T07:51:39.960Z,101416.00
2022-09-22T07:54:12.869Z,101417.00
2022-09-22T07:56:47.437Z,101421.00
2022-09-22T07:59:20.903Z,101422.00
2022-09-22T08:01:54.442Z,101422.00
2022-09-22T08:04:29.058Z,101412.00
2022-09-22T08:07:02.173Z,101413.00
2022-09-22T08:09:35.512Z,101417.00
2022-09-22T08:12:12.486Z,101415.00
2022-09-22T08:14:47.063Z,101407.00
2022-09-22T08:17:19.318Z,101417.00
2022-09-22T08:19:52.206Z,101409.00
2022-09-22T08:22:24.909Z,101410.00
2022-09-22T08:24:57.782Z,101412.00
2022-09-22T08:27:31.641Z,101413.00
2022-09-22T08:30:05.255Z,101412.00
2022-09-22T08:32:38.674Z,101399.00
2022-09-22T08:35:11.874Z,101418.00
2022-09-22T08:37:45.714Z,101411.00
2022-09-22T08:40:25.027Z,101409.00
2022-09-22T08:42:57.882Z,101406.00
2022-09-22T08:45:40.572Z,101409.00
2022-09-22T08:48:35.497Z,101412.00
2022-09-22T08:51:27.424Z,101401.00
2022-09-22T08:54:03.529Z,101414.00
2022-09-22T08:56:38.958Z,101407.00
2022-09-22T08:59:25.331Z,101410.00
2022-09-22T09:02:01.298Z,101415.00
2022-09-22T09:05:00.304Z,101412.00
2022-09-22T09:07:35.431Z,101408.00
2022-09-22T09:10:17.884Z,101407.00
2022-09-22T09:13:18.108Z,101402.00
2022-09-22T09:16:08.096Z,101404.00
2022-09-22T09:18:42.641Z,101400.00
2022-09-22T09:21:17.269Z,101403.00
2022-09-22T09:26:26.984Z,101403.00
2022-09-22T09:29:05.877Z,101403.00
2022-09-22T09:31:48.007Z,101394.00
2022-09-22T09:34:23.570Z,101387.00
2022-09-22T09:37:04.939Z,101393.00
2022-09-22T09:39:39.969Z,101391.00
2022-09-22T09:42:26.894Z,101388.00
2022-09-22T09:45:01.691Z,101384.00
2022-09-22T09:48:05.168Z,101380.00
2022-09-22T09:50:39.851Z,101383.00
2022-09-22T09:53:16.909Z,101378.00
2022-09-22T09:55:50.171Z,101369.00
2022-09-22T09:58:30.478Z,101375.00
2022-09-22T10:01:05.086Z,101370.00
2022-09-22T10:03:42.947Z,101365.00
2022-09-22T10:06:16.150Z,101359.00
2022-09-22T10:08:51.261Z,101364.00
2022-09-22T10:11:34.570Z,101352.00
2022-09-22T10:14:08.326Z,101360.00
2022-09-22T10:16:42.423Z,101350.00
2022-09-22T10:19:36.251Z,101352.00
2022-09-22T10:22:23.461Z,101339.00
2022-09-22T10:25:04.499Z,101341.00
2022-09-22T10:27:37.794Z,101334.00
2022-09-22T10:30:25.241Z,101321.00
2022-09-22T10:33:19.611Z,101324.00
2022-09-22T10:36:00.631Z,101323.00
2022-09-22T10:38:34.708Z,101321.00
2022-09-22T10:41:18.195Z,101317.00
2022-09-22T10:44:20.980Z,101322.00
2022-09-22T10:46:44.061Z,101315.00
2022-09-22T10:49:22.595Z,101308.00
2022-09-22T10:52:07.075Z,101310.00
2022-09-22T10:55:12.127Z,101311.00
2022-09-22T10:58:06.619Z,101310.00
2022-09-22T11:00:44.342Z,101314.00
2022-09-22T11:03:38.296Z,101299.00
2022-09-22T11:06:45.389Z,101304.00
2022-09-22T11:09:38.925Z,101303.00
2022-09-22T11:12:20.331Z,101302.00
2022-09-22T11:15:23.959Z,101298.00
2022-09-22T11:18:27.086Z,101292.00
2022-09-22T11:21:20.153Z,101281.00
2022-09-22T11:23:55.284Z,101280.00
2022-09-22T11:26:45.575Z,101288.00
2022-09-22T11:29:49.577Z,101285.00
2022-09-22T11:32:45.154Z,101279.00
2022-09-22T11:35:36.722Z,101271.00
2022-09-22T11:38:15.062Z,101273.00
2022-09-22T11:41:08.220Z,101269.00
2022-09-22T11:43:43.384Z,101272.00
2022-09-22T11:46:26.844Z,101265.00
2022-09-22T11:49:21.100Z,101267.00
2022-09-22T11:52:17.601Z,101264.00
2022-09-22T11:55:00.331Z,101262.00
2022-09-22T11:57:30.484Z,101248.00
2022-09-22T12:00:20.915Z,101246.00
2022-09-22T12:03:02.536Z,101251.00
2022-09-22T12:05:37.677Z,101245.00
2022-09-22T12:08:18.007Z,101248.00
2022-09-22T12:10:52.024Z,101242.00
2022-09-22T12:13:30.039Z,101245.00
2022-09-22T12:16:12.932Z,101238.00
2022-09-22T12:18:47.911Z,101236.00
2022-09-22T12:21:38.261Z,101230.00
2022-09-22T12:24:15.407Z,101234.00
2022-09-22T12:26:49.907Z,101228.00
2022-09-22T12:29:33.728Z,101220.00
2022-09-22T12:32:07.106Z,101221.00
2022-09-22T12:34:44.865Z,101218.00
2022-09-22T12:37:27.945Z,101212.00
2022-09-22T12:40:02.830Z,101212.00
2022-09-22T12:42:41.231Z,101205.00
2022-09-22T12:45:22.344Z,101200.00
2022-09-22T12:47:56.906Z,101195.00
2022-09-22T12:50:46.973Z,101194.00
2022-09-22T12:53:31.487Z,101191.00
2022-09-22T12:56:05.571Z,101189.00
2022-09-22T12:58:40.697Z,101184.00
2022-09-22T13:01:35.411Z,101188.00
2022-09-22T13:04:10.502Z,101178.00
2022-09-22T13:06:45.383Z,101181.00
2022-09-22T13:09:27.394Z,101169.00
2022-09-22T13:12:20.730Z,101170.00
2022-09-22T13:15:02.002Z,101166.00
2022-09-22T13:17:52.015Z,101167.00
2022-09-22T13:20:36.259Z,101162.00
2022-09-22T13:23:10.199Z,101157.00
2022-09-22T13:25:45.365Z,101149.00
2022-09-22T13:28:21.883Z,101151.00
2022-09-22T13:31:08.641Z,101148.00
2022-09-22T13:33:42.192Z,101139.00
2022-09-22T13:36:23.161Z,101144.00
2022-09-22T13:39:02.283Z,101144.00
2022-09-22T13:41:38.565Z,101148.00
2022-09-22T13:44:13.929Z,101140.00
2022-09-22T13:46:51.701Z,101134.00
2022-09-22T13:49:29.591Z,101139.00
2022-09-22T13:52:04.595Z,101142.00
2022-09-22T13:54:39.694Z,101138.00
2022-09-22T13:57:14.467Z,101130.00
2022-09-22T13:59:47.821Z,101139.00
2022-09-22T14:02:22.823Z,101132.00
2022-09-22T14:05:01.514Z,101126.00
2022-09-22T14:07:49.586Z,101130.00
2022-09-22T14:10:12.940Z,101125.00
2022-09-22T14:12:45.855Z,101114.00
2022-09-22T14:15:44.115Z,101114.00
2022-09-22T14:18:26.081Z,101111.00
2022-09-22T14:21:01.110Z,101102.00
2022-09-22T14:23:35.409Z,101104.00
2022-09-22T14:26:10.467Z,101091.00
2022-09-22T14:28:44.360Z,101100.00
2022-09-22T14:31:25.790Z,101094.00
2022-09-22T14:34:00.081Z,101095.00
2022-09-22T14:36:33.041Z,101091.00
2022-09-22T14:39:10.858Z,101081.00
2022-09-22T14:41:44.998Z,101084.00
2022-09-22T14:44:41.357Z,101088.00
2022-09-22T14:47:34.589Z,101077.00
2022-09-22T14:50:24.456Z,101078.00
2022-09-22T14:53:02.397Z,101081.00
2022-09-22T14:55:39.715Z,101074.00
2022-09-22T14:58:17.321Z,101068.00
2022-09-22T15:01:24.267Z,101073.00
2022-09-22T15:04:24.646Z,101072.00
2022-09-22T15:06:59.804Z,101061.00
2022-09-22T15:09:35.059Z,101069.00
2022-09-22T15:12:09.390Z,101063.00
2022-09-22T15:14:44.767Z,101065.00
2022-09-22T15:17:56.122Z,101061.00
2022-09-22T15:20:34.224Z,101060.00
2022-09-22T15:23:07.484Z,101059.00
2022-09-22T15:25:40.938Z,101058.00
2022-09-22T15:28:18.605Z,101058.00
2022-09-22T15:30:52.921Z,101061.00
2022-09-22T15:33:26.691Z,101060.00
2022-09-22T15:36:02.282Z,101066.00
2022-09-22T15:38:37.322Z,101062.00
2022-09-22T15:41:18.457Z,101056.00
2022-09-22T15:43:46.175Z,101058.00
2022-09-22T15:46:30.345Z,101056.00
2022-09-22T15:49:04.992Z,101060.00
2022-09-22T15:51:37.944Z,101057.00
2022-09-22T15:54:21.207Z,101053.00
2022-09-22T15:56:55.461Z,101055.00
2022-09-22T15:59:29.935Z,101051.00
2022-09-22T16:02:03.607Z,101058.00
2022-09-22T16:04:36.605Z,101066.00
2022-09-22T16:07:14.886Z,101067.00
2022-09-22T16:09:47.887Z,101059.00
2022-09-22T16:12:23.420Z,101060.00
2022-09-22T16:14:55.957Z,101053.00
2022-09-22T16:17:28.910Z,101056.00
2022-09-22T16:20:02.105Z,101058.00
2022-09-22T16:22:35.739Z,101058.00
2022-09-22T16:25:09.501Z,101052.00
2022-09-22T16:27:42.732Z,101054.00
2022-09-22T16:30:22.991Z,101054.00
2022-09-22T16:32:54.661Z,101050.00
2022-09-22T16:35:28.258Z,101049.00
2022-09-22T16:38:01.326Z,101060.00
2022-09-22T16:40:34.213Z,101064.00
2022-09-22T16:43:07.293Z,101056.00
2022-09-22T16:45:57.731Z,101061.00
2022-09-22T16:48:30.769Z,101059.00
2022-09-22T16:51:03.583Z,101063.00
2022-09-22T16:53:36.660Z,101066.00
2022-09-22T16:56:10.268Z,101055.00
2022-09-22T16:58:43.265Z,101052.00
2022-09-22T17:01:20.254Z,101052.00
2022-09-22T17:03:55.604Z,101055.00
2022-09-22T17:06:29.143Z,101060.00
2022-09-22T17:09:02.535Z,101057.00
2022-09-22T17:11:37.204Z,101059.00
2022-09-22T17:14:15.494Z,101058.00
2022-09-22T17:16:53.741Z,101059.00
2022-09-22T17:19:28.547Z,101059.00
2022-09-22T17:22:01.962Z,101056.00
2022-09-22T17:24:34.915Z,101056.00
2022-09-22T17:27:08.353Z,101056.00
2022-09-22T17:29:41.371Z,101060.00
2022-09-22T17:32:14.751Z,101060.00
2022-09-22T17:34:47.759Z,101068.00
2022-09-22T17:37:22.235Z,101067.00
2022-09-22T17:39:55.223Z,101070.00
2022-09-22T17:42:28.389Z,101075.00
2022-09-22T17:45:01.416Z,101072.00
2022-09-22T17:47:51.308Z,101077.00
2022-09-22T17:50:41.644Z,101082.00
2022-09-22T17:53:31.881Z,101082.00
2022-09-22T17:56:06.317Z,101084.00
2022-09-22T17:58:39.330Z,101084.00
2022-09-22T18:01:17.448Z,101086.00
2022-09-22T18:03:50.393Z,101087.00
2022-09-22T18:06:23.933Z,101101.00
2022-09-22T18:08:58.209Z,101085.00
2022-09-22T18:11:31.279Z,101089.00
2022-09-22T18:14:04.244Z,101092.00
2022-09-22T18:16:37.729Z,101093.00
2022-09-22T18:19:13.788Z,101101.00
2022-09-22T18:21:49.520Z,101090.00
2022-09-22T18:24:26.851Z,101091.00
2022-09-22T18:26:59.970Z,101103.00
2022-09-22T18:29:33.929Z,101108.00
2022-09-22T18:32:07.265Z,101105.00
2022-09-22T18:34:40.782Z,101104.00
2022-09-22T18:37:15.029Z,101106.00
2022-09-22T18:39:48.529Z,101107.00
2022-09-22T18:42:23.736Z,101116.00
2022-09-22T18:44:56.770Z,101110.00
2022-09-22T18:47:30.317Z,101114.00
2022-09-22T18:50:03.513Z,101109.00
2022-09-22T18:52:36.527Z,101105.00
2022-09-22T18:55:11.285Z,101113.00
2022-09-22T18:57:44.279Z,101115.00
2022-09-22T19:00:18.337Z,101120.00
2022-09-22T19:02:52.280Z,101121.00
2022-09-22T19:05:25.205Z,101113.00
2022-09-22T19:07:58.161Z,101123.00
2022-09-22T19:10:31.134Z,101127.00
2022-09-22T19:13:04.074Z,101129.00
2022-09-22T19:15:38.311Z,101125.00
2022-09-22T19:18:12.148Z,101127.00
2022-09-22T19:20:48.555Z,101129.00
2022-09-22T19:23:21.694Z,101137.00
2022-09-22T19:25:54.590Z,101133.00
2022-09-22T19:28:27.457Z,101142.00
2022-09-22T19:31:00.348Z,101137.00
2022-09-22T19:33:33.289Z,101146.00
2022-09-22T19:36:06.252Z,101145.00
2022-09-22T19:38:39.408Z,101141.00
2022-09-22T19:41:12.431Z,101141.00
2022-09-22T19:43:45.335Z,101138.00
2022-09-22T19:46:18.419Z,101145.00
2022-09-22T19:48:51.516Z,101146.00
2022-09-22T19:51:24.836Z,101141.00
2022-09-22T19:53:57.761Z,101145.00
2022-09-22T19:56:30.664Z,101151.00
2022-09-22T19:59:05.185Z,101148.00
2022-09-22T20:01:43.325Z,101150.00
2022-09-22T20:04:21.446Z,101160.00
2022-09-22T20:06:54.335Z,101160.00
2022-09-22T20:09:27.213Z,101155.00
2022-09-22T20:12:00.061Z,101145.00
2022-09-22T20:14:33.934Z,101148.00
2022-09-22T20:17:08.598Z,101139.00
2022-09-22T20:19:41.970Z,101144.00
2022-09-22T20:22:29.641Z,101149.00
2022-09-22T20:25:03.919Z,101158.00
2022-09-22T20:27:38.169Z,101146.00
2022-09-22T20:30:12.324Z,101142.00
2022-09-22T20:32:45.741Z,101142.00
2022-09-22T20:35:20.319Z,101148.00
2022-09-22T20:37:53.488Z,101138.00
2022-09-22T20:40:26.742Z,101138.00
2022-09-22T20:43:02.715Z,101136.00
2022-09-22T20:45:35.780Z,101140.00
2022-09-22T20:48:08.798Z,101138.00
2022-09-22T20:50:41.751Z,101140.00
2022-09-22T20:53:14.784Z,101142.00
2022-09-22T20:55:50.074Z,101139.00
2022-09-22T20:58:23.016Z,101144.00
2022-09-22T21:00:57.134Z,101144.00
2022-09-22T21:03:30.735Z,101130.00
2022-09-22T21:06:08.402Z,101137.00
2022-09-22T21:09:02.585Z,101139.00
2022-09-22T21:11:35.638Z,101136.00
2022-09-22T21:14:09.167Z,101133.00
2022-09-22T21:16:42.414Z,101137.00
2022-09-22T21:19:15.616Z,101138.00
2022-09-22T21:21:48.504Z,101136.00
2022-09-22T21:24:21.513Z,101125.00
2022-09-22T21:26:54.621Z,101143.00
2022-09-22T21:29:27.434Z,101136.00
2022-09-22T21:32:00.474Z,101140.00
2022-09-22T21:34:33.551Z,101137.00
2022-09-22T21:37:06.591Z,101125.00
2022-09-22T21:39:39.875Z,101124.00
2022-09-22T21:42:13.571Z,101120.00
2022-09-22T21:44:47.901Z,101109.00
2022-09-22T21:47:22.156Z,101116.00
2022-09-22T21:49:55.480Z,101112.00
2022-09-22T21:52:28.577Z,101119.00
2022-09-22T21:55:02.020Z,101119.00
2022-09-22T21:57:34.993Z,101116.00
2022-09-22T22:00:13.500Z,101111.00
2022-09-22T22:03:04.088Z,101120.00
2022-09-22T22:05:43.539Z,101123.00
2022-09-22T22:08:16.552Z,101128.00
2022-09-22T22:10:49.689Z,101111.00
2022-09-22T22:13:23.177Z,101114.00
2022-09-22T22:15:58.256Z,101107.00
2022-09-22T22:18:31.647Z,101103.00
2022-09-22T22:21:06.350Z,101105.00
2022-09-22T22:23:41.323Z,101107.00
2022-09-22T22:26:19.451Z,101096.00
2022-09-22T22:28:53.379Z,101095.00
2022-09-22T22:31:30.118Z,101088.00
2022-09-22T22:34:03.294Z,101091.00
2022-09-22T22:36:36.495Z,101099.00
2022-09-22T22:39:09.566Z,101094.00
2022-09-22T22:41:43.102Z,101091.00
2022-09-22T22:44:16.192Z,101079.00
2022-09-22T22:46:49.331Z,101087.00
2022-09-22T22:49:23.286Z,101088.00
2022-09-22T22:51:59.398Z,101083.00
2022-09-22T22:54:32.395Z,101087.00
2022-09-22T22:57:05.286Z,101086.00
2022-09-22T22:59:38.366Z,101092.00
2022-09-22T23:02:11.592Z,101088.00
2022-09-22T23:04:44.532Z,101090.00
2022-09-22T23:07:17.478Z,101090.00
2022-09-22T23:09:50.407Z,101094.00
2022-09-22T23:12:23.589Z,101095.00
2022-09-22T23:14:56.724Z,101100.00
2022-09-22T23:17:29.888Z,101105.00
2022-09-22T23:20:02.861Z,101102.00
2022-09-22T23:22:38.545Z,101092.00
2022-09-22T23:25:12.148Z,101084.00
2022-09-22T23:27:50.276Z,101090.00
2022-09-22T23:30:23.412Z,101088.00
2022-09-22T23:32:56.416Z,101091.00
2022-09-22T23:35:29.471Z,101087.00
2022-09-22T23:38:02.624Z,101086.00
2022-09-22T23:40:36.645Z,101087.00
2022-09-22T23:43:14.417Z,101087.00
2022-09-22T23:45:48.066Z,101088.00
2022-09-22T23:48:22.463Z,101080.00
2022-09-22T23:50:57.324Z,101077.00
2022-09-22T23:53:38.312Z,101076.00
2022-09-22T23:56:12.107Z,101080.00
2022-09-22T23:58:45.072Z,101082.00
